createdAt,value
2023-03-19T00:00:20.434Z,300.81
2023-03-19T00:01:20.428Z,301.08
2023-03-19T00:02:20.499Z,287.58
2023-03-19T00:03:20.485Z,273.16
2023-03-19T00:04:20.411Z,254.84
2023-03-19T00:05:20.384Z,244.55
2023-03-19T00:06:20.565Z,240.23
2023-03-19T00:07:20.348Z,239.53
2023-03-19T00:08:20.354Z,241.12
2023-03-19T00:09:20.441Z,249.78
2023-03-19T00:10:20.334Z,259.91
2023-03-19T00:11:20.331Z,261.15
2023-03-19T00:12:20.428Z,264.75
2023-03-19T00:13:20.301Z,262.62
2023-03-19T00:14:20.283Z,260.95
2023-03-19T00:15:20.369Z,257.05
2023-03-19T00:16:20.318Z,260.32
2023-03-19T00:17:20.275Z,267.57
2023-03-19T00:18:20.319Z,264.96
2023-03-19T00:19:20.256Z,266.69
2023-03-19T00:20:20.280Z,264.54
2023-03-19T00:21:20.249Z,267.35
2023-03-19T00:22:20.256Z,274.53
2023-03-19T00:23:20.219Z,282.36
2023-03-19T00:24:20.215Z,293.25
2023-03-19T00:25:20.189Z,295.90
2023-03-19T00:26:20.175Z,294.31
2023-03-19T00:27:20.161Z,290.90
2023-03-19T00:28:20.206Z,288.59
2023-03-19T00:29:20.139Z,300.25
2023-03-19T00:30:20.143Z,311.41
2023-03-19T00:31:20.147Z,311.71
2023-03-19T00:32:20.104Z,313.50
2023-03-19T00:33:20.108Z,315.92
2023-03-19T00:34:20.215Z,311.41
2023-03-19T00:35:20.068Z,309.05
2023-03-19T00:36:20.066Z,303.88
2023-03-19T00:37:20.137Z,305.30
2023-03-19T00:38:20.068Z,323.43
2023-03-19T00:39:20.051Z,342.40
2023-03-19T00:40:20.065Z,358.55
2023-03-19T00:41:20.011Z,384.90
2023-03-19T00:42:20.022Z,382.46
2023-03-19T00:43:20.138Z,384.45
2023-03-19T00:44:19.997Z,382.02
2023-03-19T00:45:19.985Z,377.16
2023-03-19T00:46:20.014Z,365.77
2023-03-19T00:47:20.081Z,360.52
2023-03-19T00:48:19.940Z,362.52
2023-03-19T00:49:19.958Z,377.60
2023-03-19T00:50:19.989Z,401.17
2023-03-19T00:51:19.941Z,410.84
2023-03-19T00:52:19.914Z,417.56
2023-03-19T00:53:19.922Z,426.95
2023-03-19T00:54:19.890Z,438.22
2023-03-19T00:55:19.869Z,442.30
2023-03-19T00:56:19.889Z,447.06
2023-03-19T00:57:19.856Z,454.40
2023-03-19T00:58:19.853Z,461.02
2023-03-19T00:59:19.846Z,467.51
2023-03-19T01:00:19.834Z,467.51
2023-03-19T01:01:19.845Z,469.16
2023-03-19T01:02:19.810Z,466.20
2023-03-19T01:03:19.800Z,459.11
2023-03-19T01:04:19.925Z,460.39
2023-03-19T01:05:19.798Z,468.17
2023-03-19T01:06:19.768Z,462.31
2023-03-19T01:07:19.774Z,454.09
2023-03-19T01:08:19.745Z,452.85
2023-03-19T01:09:19.814Z,448.57
2023-03-19T01:10:19.722Z,446.76
2023-03-19T01:11:19.732Z,444.97
2023-03-19T01:12:19.732Z,462.31
2023-03-19T01:13:19.687Z,487.05
2023-03-19T01:14:19.711Z,513.79
2023-03-19T01:15:19.705Z,527.25
2023-03-19T01:16:19.718Z,533.60
2023-03-19T01:17:19.814Z,539.67
2023-03-19T01:18:19.659Z,561.57
2023-03-19T01:19:19.977Z,576.68
2023-03-19T01:20:19.636Z,608.92
2023-03-19T01:21:19.611Z,650.03
2023-03-19T01:22:19.714Z,664.34
2023-03-19T01:23:19.606Z,695.64
2023-03-19T01:24:19.607Z,703.00
2023-03-19T01:25:19.676Z,713.57
2023-03-19T01:26:19.562Z,732.45
2023-03-19T01:27:19.547Z,752.69
2023-03-19T01:28:19.533Z,776.87
2023-03-19T01:29:19.656Z,817.46
2023-03-19T01:30:19.527Z,826.09
2023-03-19T01:31:19.545Z,866.45
2023-03-19T01:32:19.506Z,898.65
2023-03-19T01:33:19.479Z,930.07
2023-03-19T01:34:19.488Z,970.09
2023-03-19T01:35:19.486Z,1003.77
2023-03-19T01:36:19.636Z,1027.03
2023-03-19T01:37:19.440Z,1058.07
2023-03-19T01:38:19.449Z,1071.72
2023-03-19T01:39:19.491Z,1099.17
2023-03-19T01:40:19.442Z,1148.53
2023-03-19T01:41:19.399Z,1167.69
2023-03-19T01:42:19.583Z,1192.82
2023-03-19T01:43:19.406Z,1224.68
2023-03-19T01:44:19.373Z,1247.65
2023-03-19T01:45:19.357Z,1263.06
2023-03-19T01:46:19.394Z,1265.46
2023-03-19T01:47:19.354Z,1296.30
2023-03-19T01:48:19.335Z,1301.37
2023-03-19T01:49:19.343Z,1306.48
2023-03-19T01:50:19.330Z,1316.83
2023-03-19T01:51:19.295Z,1364.10
2023-03-19T01:52:19.292Z,1364.10
2023-03-19T01:53:19.304Z,1382.54
2023-03-19T01:54:19.393Z,1386.86
2023-03-19T01:55:19.262Z,1430.11
2023-03-19T01:56:19.277Z,1442.52
2023-03-19T01:57:19.363Z,1442.52
2023-03-19T01:58:19.255Z,1450.38
2023-03-19T01:59:19.227Z,1472.87
2023-03-19T02:00:19.209Z,1507.94
2023-03-19T02:02:36.794Z,405.83
2023-03-19T02:03:37.903Z,767.01
2023-03-19T02:04:37.946Z,1026.23
2023-03-19T02:05:37.755Z,1207.99
2023-03-19T02:06:37.761Z,1314.23
2023-03-19T02:07:37.753Z,1346.15
2023-03-19T02:08:37.720Z,1369.72
2023-03-19T02:09:37.741Z,1361.31
2023-03-19T02:10:37.714Z,1372.55
2023-03-19T02:11:37.702Z,1355.76
2023-03-19T02:12:37.691Z,1378.24
2023-03-19T02:13:37.675Z,1385.42
2023-03-19T02:14:37.692Z,1382.54
2023-03-19T02:15:37.683Z,1350.25
2023-03-19T02:16:37.650Z,1358.53
2023-03-19T02:17:37.638Z,1336.68
2023-03-19T02:18:37.663Z,1316.83
2023-03-19T02:19:37.625Z,1278.85
2023-03-19T02:20:37.615Z,1245.32
2023-03-19T02:21:37.637Z,1166.67
2023-03-19T02:22:37.588Z,1139.67
2023-03-19T02:23:37.660Z,1091.06
2023-03-19T02:24:37.603Z,1048.07
2023-03-19T02:25:37.568Z,970.80
2023-03-19T02:26:37.553Z,925.54
2023-03-19T02:27:37.533Z,898.65
2023-03-19T02:28:37.540Z,873.85
2023-03-19T02:29:37.518Z,854.76
2023-03-19T02:30:37.512Z,811.47
2023-03-19T02:31:37.570Z,754.40
2023-03-19T02:32:44.070Z,691.30
2023-03-19T02:33:37.495Z,654.52
2023-03-19T02:34:37.479Z,623.20
2023-03-19T02:35:37.461Z,603.39
2023-03-19T02:36:37.445Z,577.68
2023-03-19T02:37:37.439Z,551.77
2023-03-19T02:38:37.417Z,520.23
2023-03-19T02:39:37.436Z,494.67
2023-03-19T02:40:37.424Z,463.92
2023-03-19T02:41:37.386Z,422.87
2023-03-19T02:42:37.382Z,377.16
2023-03-19T02:43:37.393Z,332.98
2023-03-19T02:44:37.381Z,296.44
2023-03-19T02:45:37.357Z,266.26
2023-03-19T02:46:37.366Z,257.86
2023-03-19T02:47:37.331Z,249.40
2023-03-19T02:48:37.336Z,251.90
2023-03-19T02:49:37.319Z,251.12
2023-03-19T02:50:37.315Z,248.64
2023-03-19T02:51:37.311Z,261.15
2023-03-19T02:52:37.287Z,278.27
2023-03-19T02:53:37.278Z,301.92
2023-03-19T02:54:37.251Z,328.96
2023-03-19T02:55:37.293Z,361.72
2023-03-19T02:56:37.238Z,392.17
2023-03-19T02:57:37.241Z,417.56
2023-03-19T02:58:37.243Z,442.60
2023-03-19T02:59:37.237Z,469.16
2023-03-19T03:00:37.519Z,485.62
2023-03-19T03:01:37.258Z,500.63
2023-03-19T03:02:37.174Z,517.40
2023-03-19T03:03:37.184Z,553.61
2023-03-19T03:04:37.250Z,593.16
2023-03-19T03:05:37.157Z,661.03
2023-03-19T03:06:37.149Z,708.25
2023-03-19T03:07:37.177Z,763.05
2023-03-19T03:08:37.128Z,813.46
2023-03-19T03:09:37.124Z,850.38
2023-03-19T03:10:37.120Z,901.08
2023-03-19T03:11:37.089Z,927.47
2023-03-19T03:12:37.090Z,939.27
2023-03-19T03:13:37.121Z,944.60
2023-03-19T03:14:37.090Z,948.64
2023-03-19T03:15:37.079Z,952.72
2023-03-19T03:16:37.196Z,956.83
2023-03-19T03:17:37.029Z,966.57
2023-03-19T03:18:37.049Z,988.11
2023-03-19T03:19:37.094Z,1034.21
2023-03-19T03:20:37.023Z,1076.05
2023-03-19T03:21:36.986Z,1123.31
2023-03-19T03:22:37.059Z,1175.95
2023-03-19T03:23:36.969Z,1217.95
2023-03-19T03:24:36.978Z,1277.62
2023-03-19T03:25:36.958Z,1323.38
2023-03-19T03:26:36.940Z,1355.76
2023-03-19T03:27:36.943Z,1402.95
2023-03-19T03:28:36.923Z,1433.19
2023-03-19T03:29:36.932Z,1442.52
2023-03-19T03:30:36.903Z,1484.38
2023-03-19T03:31:36.974Z,1502.82
2023-03-19T03:32:36.940Z,1507.94
2023-03-19T03:33:36.881Z,1506.23
2023-03-19T03:34:36.886Z,1484.38
2023-03-19T03:35:36.892Z,1439.39
2023-03-19T03:36:36.848Z,1389.76
2023-03-19T03:37:36.827Z,1326.02
2023-03-19T03:38:36.834Z,1306.48
2023-03-19T03:39:36.817Z,1282.55
2023-03-19T03:40:36.971Z,1258.28
2023-03-19T03:41:36.793Z,1253.53
2023-03-19T03:42:36.803Z,1242.99
2023-03-19T03:43:36.765Z,1225.81
2023-03-19T03:44:36.779Z,1203.62
2023-03-19T03:45:36.792Z,1178.03
2023-03-19T03:46:36.747Z,1162.59
2023-03-19T03:47:36.748Z,1145.56
2023-03-19T03:48:36.735Z,1121.42
2023-03-19T03:49:36.742Z,1112.97
2023-03-19T03:50:36.699Z,1077.80
2023-03-19T03:51:36.709Z,1043.14
2023-03-19T03:52:36.712Z,1013.72
2023-03-19T03:53:36.669Z,999.25
2023-03-19T03:54:36.660Z,978.66
2023-03-19T03:55:36.669Z,963.77
2023-03-19T03:56:36.679Z,941.26
2023-03-19T03:57:36.624Z,941.26
2023-03-19T03:58:36.644Z,933.33
2023-03-19T03:59:36.607Z,908.47
2023-03-19T04:00:36.624Z,907.23
2023-03-19T04:01:36.587Z,890.82
2023-03-19T04:02:36.623Z,881.96
2023-03-19T04:03:36.691Z,856.96
2023-03-19T04:04:36.569Z,838.06
2023-03-19T04:05:36.548Z,829.69
2023-03-19T04:06:36.543Z,835.95
2023-03-19T04:07:36.541Z,813.95
2023-03-19T04:08:36.550Z,799.76
2023-03-19T04:09:36.526Z,798.80
2023-03-19T04:10:36.527Z,800.24
2023-03-19T04:11:36.512Z,786.98
2023-03-19T04:12:36.477Z,776.41
2023-03-19T04:13:36.483Z,758.27
2023-03-19T04:14:36.489Z,749.72
2023-03-19T04:15:36.455Z,743.10
2023-03-19T04:16:36.530Z,738.15
2023-03-19T04:17:36.430Z,734.88
2023-03-19T04:18:36.422Z,725.26
2023-03-19T04:19:36.412Z,722.10
2023-03-19T04:20:36.633Z,717.42
2023-03-19T04:21:36.389Z,707.49
2023-03-19T04:22:36.384Z,695.64
2023-03-19T04:23:36.374Z,679.28
2023-03-19T04:24:36.358Z,655.16
2023-03-19T04:25:36.380Z,630.90
2023-03-19T04:26:36.358Z,600.12
2023-03-19T04:27:36.327Z,563.00
2023-03-19T04:28:36.330Z,514.99
2023-03-19T04:29:36.306Z,478.97
2023-03-19T04:30:36.758Z,427.77
2023-03-19T04:31:36.294Z,386.92
2023-03-19T04:32:36.287Z,349.72
2023-03-19T04:33:36.276Z,315.92
2023-03-19T04:34:36.270Z,277.56
2023-03-19T04:35:36.375Z,251.32
2023-03-19T04:36:36.261Z,230.25
2023-03-19T04:37:36.250Z,215.95
2023-03-19T04:38:36.231Z,204.73
2023-03-19T04:39:36.219Z,191.42
2023-03-19T04:40:36.509Z,182.89
2023-03-19T04:41:36.218Z,173.36
2023-03-19T04:42:36.189Z,166.42
2023-03-19T04:43:36.182Z,158.94
2023-03-19T04:44:36.184Z,150.45
2023-03-19T04:45:36.168Z,142.46
2023-03-19T04:46:36.139Z,138.54
2023-03-19T04:47:36.162Z,133.86
2023-03-19T04:48:36.113Z,130.19
2023-03-19T04:49:36.115Z,125.85
2023-03-19T04:50:36.105Z,121.44
2023-03-19T04:51:36.081Z,117.41
2023-03-19T04:52:36.101Z,112.10
2023-03-19T04:53:36.074Z,106.16
2023-03-19T04:54:36.078Z,100.09
2023-03-19T04:55:36.044Z,94.94
2023-03-19T04:56:36.030Z,90.12
2023-03-19T04:57:36.029Z,84.70
2023-03-19T04:58:36.072Z,79.90
2023-03-19T04:59:35.999Z,75.41
2023-03-19T05:00:36.038Z,71.82
2023-03-19T05:01:36.009Z,69.13
2023-03-19T05:02:35.980Z,66.27
2023-03-19T05:03:35.994Z,63.39
2023-03-19T05:04:35.958Z,62.02
2023-03-19T05:05:35.909Z,59.87
2023-03-19T05:06:35.934Z,58.20
2023-03-19T05:07:35.885Z,56.30
2023-03-19T05:08:35.863Z,54.75
2023-03-19T05:09:35.863Z,53.03
2023-03-19T05:10:36.035Z,51.30
2023-03-19T05:11:35.959Z,49.79
2023-03-19T05:12:35.822Z,48.09
2023-03-19T05:13:35.867Z,47.06
2023-03-19T05:14:35.807Z,45.57
2023-03-19T05:15:35.953Z,43.98
2023-03-19T05:16:35.794Z,42.45
2023-03-19T05:17:35.770Z,40.83
2023-03-19T05:18:35.826Z,39.55
2023-03-19T05:19:35.767Z,38.06
2023-03-19T05:20:36.088Z,36.85
2023-03-19T05:21:35.732Z,35.68
2023-03-19T05:22:35.738Z,34.99
2023-03-19T05:23:35.717Z,34.19
2023-03-19T05:24:35.704Z,33.63
2023-03-19T05:25:35.860Z,32.97
2023-03-19T05:26:35.701Z,32.53
2023-03-19T05:27:35.685Z,32.13
2023-03-19T05:28:35.688Z,31.78
2023-03-19T05:29:35.674Z,31.45
2023-03-19T05:30:36.087Z,31.16
2023-03-19T05:31:35.806Z,30.73
2023-03-19T05:32:35.639Z,30.46
2023-03-19T05:33:35.628Z,30.21
2023-03-19T05:34:35.904Z,29.91
2023-03-19T05:35:35.665Z,29.67
2023-03-19T05:36:35.596Z,29.57
2023-03-19T05:37:35.706Z,29.26
2023-03-19T05:38:35.598Z,28.99
2023-03-19T05:39:35.583Z,28.75
2023-03-19T05:40:35.836Z,28.48
2023-03-19T05:41:35.589Z,28.24
2023-03-19T05:42:35.549Z,28.17
2023-03-19T05:43:35.813Z,28.21
2023-03-19T05:44:35.566Z,28.13
2023-03-19T05:45:35.497Z,28.17
2023-03-19T05:46:35.809Z,28.24
2023-03-19T05:47:35.466Z,28.17
2023-03-19T05:48:35.473Z,28.28
2023-03-19T05:49:35.482Z,28.30
2023-03-19T05:50:35.732Z,28.21
2023-03-19T05:51:35.452Z,28.09
2023-03-19T05:52:35.429Z,27.88
2023-03-19T05:53:35.436Z,27.88
2023-03-19T05:54:35.402Z,27.83
2023-03-19T05:55:35.433Z,27.81
2023-03-19T05:56:35.412Z,27.87
2023-03-19T05:57:35.781Z,28.02
2023-03-19T05:58:35.700Z,28.09
2023-03-19T05:59:35.590Z,28.32
2023-03-19T06:00:35.709Z,28.63
2023-03-19T06:01:35.407Z,29.17
2023-03-19T06:02:35.384Z,29.57
2023-03-19T06:03:35.711Z,30.59
2023-03-19T06:04:35.308Z,31.45
2023-03-19T06:05:35.294Z,32.28
2023-03-19T06:06:35.614Z,33.60
2023-03-19T06:07:35.297Z,34.93
2023-03-19T06:08:35.262Z,35.68
2023-03-19T06:09:35.525Z,36.11
2023-03-19T06:10:35.658Z,35.68
2023-03-19T06:11:35.231Z,35.05
2023-03-19T06:12:35.613Z,34.55
2023-03-19T06:13:35.258Z,35.35
2023-03-19T06:14:35.219Z,38.81
2023-03-19T06:15:35.814Z,42.19
2023-03-19T06:16:35.178Z,44.03
2023-03-19T06:17:35.187Z,50.86
2023-03-19T06:18:35.172Z,54.85
2023-03-19T06:19:35.207Z,60.62
2023-03-19T06:20:35.560Z,68.85
2023-03-19T06:21:35.123Z,78.10
2023-03-19T06:22:35.424Z,85.84
2023-03-19T06:23:35.102Z,90.71
2023-03-19T06:24:35.111Z,89.73
2023-03-19T06:25:35.347Z,84.19
2023-03-19T06:26:35.077Z,76.59
2023-03-19T06:27:35.084Z,69.77
2023-03-19T06:28:35.063Z,63.97
2023-03-19T06:29:35.051Z,58.36
2023-03-19T06:30:35.237Z,54.00
2023-03-19T06:31:35.060Z,50.12
2023-03-19T06:32:35.133Z,47.35
2023-03-19T06:33:35.009Z,45.32
2023-03-19T06:34:35.002Z,43.79
2023-03-19T06:35:35.104Z,42.07
2023-03-19T06:36:34.978Z,40.91
2023-03-19T06:37:35.002Z,39.44
2023-03-19T06:38:34.992Z,38.67
2023-03-19T06:39:34.945Z,37.72
2023-03-19T06:40:35.181Z,36.92
2023-03-19T06:41:34.937Z,36.11
2023-03-19T06:42:35.027Z,35.14
2023-03-19T06:43:34.912Z,34.50
2023-03-19T06:44:34.946Z,34.02
2023-03-19T06:45:34.894Z,33.96
2023-03-19T06:46:34.871Z,33.60
2023-03-19T06:47:34.912Z,33.42
2023-03-19T06:48:34.882Z,32.78
2023-03-19T06:49:34.846Z,32.50
2023-03-19T06:50:35.125Z,32.23
2023-03-19T06:51:34.839Z,32.03
2023-03-19T06:52:34.839Z,31.90
2023-03-19T06:53:34.820Z,31.64
2023-03-19T06:54:36.634Z,31.57
2023-03-19T06:55:34.799Z,31.47
2023-03-19T06:56:34.827Z,31.38
2023-03-19T06:57:34.771Z,31.12
2023-03-19T06:58:34.756Z,31.16
2023-03-19T06:59:34.765Z,30.95
2023-03-19T07:00:34.968Z,30.68
2023-03-19T07:01:34.733Z,30.41
2023-03-19T07:02:34.812Z,30.13
2023-03-19T07:03:34.713Z,29.95
2023-03-19T07:04:34.829Z,30.00
2023-03-19T07:05:34.701Z,30.04
2023-03-19T07:06:34.675Z,30.26
2023-03-19T07:07:34.687Z,30.43
2023-03-19T07:08:35.177Z,30.86
2023-03-19T07:09:34.655Z,31.14
2023-03-19T07:10:34.830Z,31.40
2023-03-19T07:11:35.965Z,31.12
2023-03-19T07:12:34.615Z,31.16
2023-03-19T07:13:34.623Z,31.47
2023-03-19T07:14:34.600Z,31.45
2023-03-19T07:15:34.586Z,31.90
2023-03-19T07:16:34.640Z,32.53
2023-03-19T07:17:34.581Z,33.23
2023-03-19T07:18:34.552Z,33.88
2023-03-19T07:19:34.559Z,34.84
2023-03-19T07:20:34.750Z,35.83
2023-03-19T07:21:34.524Z,36.72
2023-03-19T07:22:34.533Z,37.68
2023-03-19T07:23:34.511Z,38.34
2023-03-19T07:24:34.490Z,38.74
2023-03-19T07:25:34.485Z,38.99
2023-03-19T07:26:34.474Z,39.21
2023-03-19T07:27:34.496Z,39.29
2023-03-19T07:28:34.452Z,38.88
2023-03-19T07:29:34.465Z,38.45
2023-03-19T07:30:34.656Z,38.27
2023-03-19T07:31:34.466Z,37.86
2023-03-19T07:32:34.469Z,37.62
2023-03-19T07:33:34.440Z,37.28
2023-03-19T07:34:34.394Z,36.69
2023-03-19T07:35:34.403Z,36.05
2023-03-19T07:36:34.390Z,35.83
2023-03-19T07:37:34.366Z,35.65
2023-03-19T07:38:34.476Z,35.77
2023-03-19T07:39:34.367Z,35.71
2023-03-19T07:40:34.536Z,35.32
2023-03-19T07:41:34.353Z,34.79
2023-03-19T07:42:34.332Z,34.61
2023-03-19T07:43:34.310Z,34.38
2023-03-19T07:44:34.295Z,34.27
2023-03-19T07:45:34.289Z,34.16
2023-03-19T07:46:34.323Z,34.21
2023-03-19T07:47:34.267Z,34.30
2023-03-19T07:48:34.249Z,34.16
2023-03-19T07:49:34.252Z,34.07
2023-03-19T07:50:34.503Z,34.13
2023-03-19T07:51:34.249Z,34.24
2023-03-19T07:52:34.213Z,34.16
2023-03-19T07:53:34.218Z,34.53
2023-03-19T07:54:34.223Z,35.74
2023-03-19T07:55:35.190Z,36.85
2023-03-19T07:56:34.196Z,37.58
2023-03-19T07:57:34.174Z,39.21
2023-03-19T07:58:34.203Z,43.07
2023-03-19T07:59:34.143Z,48.74
2023-03-19T08:00:34.411Z,53.14
2023-03-19T08:01:34.135Z,56.49
2023-03-19T08:02:34.315Z,58.11
2023-03-19T08:03:34.140Z,58.69
2023-03-19T08:04:34.109Z,58.32
2023-03-19T08:05:34.120Z,57.79
2023-03-19T08:06:34.105Z,56.42
2023-03-19T08:07:34.114Z,55.37
2023-03-19T08:08:34.055Z,55.96
2023-03-19T08:09:34.059Z,56.65
2023-03-19T08:10:36.437Z,59.28
2023-03-19T08:11:34.077Z,58.77
2023-03-19T08:12:34.000Z,56.53
2023-03-19T08:13:34.020Z,56.26
2023-03-19T08:14:33.994Z,54.78
2023-03-19T08:15:34.090Z,54.57
2023-03-19T08:16:34.007Z,53.96
2023-03-19T08:17:33.983Z,54.28
2023-03-19T08:18:33.979Z,57.19
2023-03-19T08:19:33.971Z,62.11
2023-03-19T08:20:34.187Z,67.78
2023-03-19T08:21:33.929Z,72.57
2023-03-19T08:22:33.916Z,74.26
2023-03-19T08:23:33.922Z,77.01
2023-03-19T08:24:33.987Z,77.59
2023-03-19T08:25:33.889Z,78.76
2023-03-19T08:26:33.884Z,84.36
2023-03-19T08:27:33.892Z,94.25
2023-03-19T08:28:33.842Z,109.74
2023-03-19T08:29:33.944Z,122.51
2023-03-19T08:30:34.126Z,137.40
2023-03-19T08:31:33.871Z,156.40
2023-03-19T08:32:33.824Z,168.95
2023-03-19T08:33:33.810Z,179.73
2023-03-19T08:34:33.854Z,192.09
2023-03-19T08:35:33.871Z,205.89
2023-03-19T08:36:33.865Z,219.43
2023-03-19T08:37:33.776Z,239.71
2023-03-19T08:38:33.745Z,253.85
2023-03-19T08:39:33.756Z,275.46
2023-03-19T08:40:33.981Z,278.75
2023-03-19T08:41:33.793Z,278.98
2023-03-19T08:42:33.770Z,286.07
2023-03-19T08:43:33.735Z,279.22
2023-03-19T08:44:33.691Z,295.64
2023-03-19T08:45:33.815Z,312.60
2023-03-19T08:46:33.761Z,316.84
2023-03-19T08:47:33.974Z,309.05
2023-03-19T08:48:33.641Z,314.40
2023-03-19T08:49:33.666Z,312.00
2023-03-19T08:50:33.962Z,309.05
2023-03-19T08:51:34.065Z,316.84
2023-03-19T08:52:34.039Z,303.32
2023-03-19T08:53:33.607Z,302.48
2023-03-19T08:54:33.618Z,310.23
2023-03-19T08:55:33.658Z,292.20
2023-03-19T08:56:33.589Z,308.18
2023-03-19T08:57:33.573Z,326.33
2023-03-19T08:58:33.641Z,331.29
2023-03-19T08:59:34.366Z,342.76
2023-03-19T09:00:33.796Z,341.68
2023-03-19T09:01:33.588Z,371.17
2023-03-19T09:02:33.504Z,397.80
2023-03-19T09:03:33.481Z,409.83
2023-03-19T09:04:33.769Z,436.49
2023-03-19T09:05:33.648Z,449.48
2023-03-19T09:06:33.457Z,464.57
2023-03-19T09:07:33.445Z,503.28
2023-03-19T09:08:33.718Z,548.13
2023-03-19T09:09:33.429Z,549.49
2023-03-19T09:10:33.715Z,565.39
2023-03-19T09:11:33.509Z,582.24
2023-03-19T09:12:33.393Z,600.12
2023-03-19T09:13:33.400Z,653.23
2023-03-19T09:14:33.581Z,716.65
2023-03-19T09:15:33.709Z,751.84
2023-03-19T09:16:33.359Z,741.45
2023-03-19T09:17:33.602Z,730.84
2023-03-19T09:18:33.367Z,709.76
2023-03-19T09:19:33.341Z,700.78
2023-03-19T09:20:33.535Z,712.04
2023-03-19T09:21:33.351Z,750.56
2023-03-19T09:22:33.309Z,784.66
2023-03-19T09:23:33.518Z,767.46
2023-03-19T09:24:33.280Z,705.24
2023-03-19T09:25:33.610Z,643.11
2023-03-19T09:26:33.470Z,716.65
2023-03-19T09:27:33.242Z,886.08
2023-03-19T09:28:33.244Z,952.72
2023-03-19T09:29:33.346Z,973.65
2023-03-19T09:30:33.249Z,997.75
2023-03-19T09:31:33.274Z,983.73
2023-03-19T09:32:33.214Z,971.51
2023-03-19T09:33:33.180Z,943.93
2023-03-19T09:34:33.181Z,938.60
2023-03-19T09:35:33.527Z,977.22
2023-03-19T09:36:33.185Z,1056.39
2023-03-19T09:37:33.160Z,1116.71
2023-03-19T09:38:33.123Z,1097.36
2023-03-19T09:39:33.147Z,1108.33
2023-03-19T09:40:33.108Z,1079.55
2023-03-19T09:41:33.108Z,1040.69
2023-03-19T09:42:33.186Z,988.85
2023-03-19T09:43:33.108Z,906.61
2023-03-19T09:44:33.092Z,888.44
2023-03-19T09:45:33.402Z,873.28
2023-03-19T09:46:33.085Z,989.58
2023-03-19T09:47:33.064Z,1105.57
2023-03-19T09:48:33.140Z,1088.38
2023-03-19T09:49:33.031Z,1121.42
2023-03-19T09:50:32.999Z,1161.57
2023-03-19T09:51:33.029Z,1209.09
2023-03-19T09:52:32.990Z,1275.17
2023-03-19T09:53:32.976Z,1346.15
2023-03-19T09:54:32.982Z,1340.72
2023-03-19T09:55:33.192Z,1358.53
2023-03-19T09:56:32.999Z,1351.63
2023-03-19T09:57:32.932Z,1339.38
2023-03-19T09:58:33.166Z,1404.44
2023-03-19T09:59:32.908Z,1444.08
2023-03-19T10:00:32.968Z,1431.65
2023-03-19T10:01:32.919Z,1382.54
2023-03-19T10:02:32.902Z,1371.13
2023-03-19T10:03:33.002Z,1400.00
2023-03-19T10:04:32.878Z,1464.76
2023-03-19T10:05:33.347Z,1477.78
2023-03-19T10:06:32.843Z,1509.65
2023-03-19T10:07:32.945Z,1507.94
2023-03-19T10:08:32.826Z,1512.22
2023-03-19T10:09:32.840Z,1540.24
2023-03-19T10:10:32.829Z,1653.20
2023-03-19T10:11:32.862Z,1767.44
2023-03-19T10:12:32.778Z,1849.79
2023-03-19T10:13:32.837Z,1998.50
2023-03-19T10:14:32.811Z,2012.10
2023-03-19T10:15:33.330Z,2104.43
2023-03-19T10:16:32.795Z,2166.12
2023-03-19T10:17:32.733Z,2259.98
2023-03-19T10:18:32.733Z,2229.67
2023-03-19T10:19:33.180Z,2233.42
2023-03-19T10:20:32.919Z,2375.00
2023-03-19T10:21:32.728Z,2440.37
2023-03-19T10:22:32.692Z,2481.34
2023-03-19T10:23:32.709Z,2535.75
2023-03-19T10:24:32.742Z,2706.00
2023-03-19T10:25:33.164Z,2860.22
2023-03-19T10:26:32.649Z,2875.68
2023-03-19T10:27:32.727Z,2820.78
2023-03-19T10:28:32.780Z,2826.78
2023-03-19T10:29:32.632Z,2767.95
2023-03-19T10:30:32.653Z,2665.33
2023-03-19T10:31:32.619Z,2857.14
2023-03-19T10:32:32.660Z,2854.08
2023-03-19T10:33:32.587Z,2800.00
2023-03-19T10:34:32.598Z,2847.97
2023-03-19T10:35:33.155Z,2958.84
2023-03-19T10:36:32.611Z,2929.51
2023-03-19T10:37:32.586Z,2993.81
2023-03-19T10:38:32.513Z,2919.87
2023-03-19T10:39:32.518Z,3031.34
2023-03-19T10:40:32.520Z,3073.37
2023-03-19T10:41:32.536Z,3206.75
2023-03-19T10:42:33.330Z,3296.16
2023-03-19T10:43:32.475Z,3267.81
2023-03-19T10:44:32.470Z,3335.42
2023-03-19T10:45:32.696Z,3348.02
2023-03-19T10:46:32.473Z,3414.63
2023-03-19T10:47:32.431Z,3534.88
2023-03-19T10:48:32.468Z,3626.45
2023-03-19T10:49:32.508Z,3232.08
2023-03-19T10:50:32.485Z,3093.02
2023-03-19T10:51:32.476Z,3102.04
2023-03-19T10:52:32.421Z,3127.57
2023-03-19T10:53:32.390Z,3149.79
2023-03-19T10:54:32.361Z,3174.22
2023-03-19T10:55:32.650Z,3091.23
2023-03-19T10:56:32.342Z,3096.62
2023-03-19T10:57:32.347Z,3237.98
2023-03-19T10:58:32.312Z,3339.61
2023-03-19T10:59:32.350Z,3436.69
2023-03-19T11:00:32.307Z,3623.98
2023-03-19T11:01:32.401Z,3709.90
2023-03-19T11:02:32.316Z,3757.06
2023-03-19T11:03:32.434Z,3623.98
2023-03-19T11:04:32.275Z,3735.96
2023-03-19T11:05:32.319Z,3653.85
2023-03-19T11:06:32.298Z,3621.51
2023-03-19T11:07:32.295Z,3730.72
2023-03-19T11:08:35.752Z,3827.34
2023-03-19T11:09:32.216Z,4015.09
2023-03-19T11:10:32.216Z,4140.08
2023-03-19T11:11:32.256Z,4073.51
2023-03-19T11:12:32.243Z,4045.63
2023-03-19T11:13:32.162Z,4245.81
2023-03-19T11:14:32.155Z,4222.22
2023-03-19T11:15:32.248Z,4242.42
2023-03-19T11:16:32.156Z,4273.09
2023-03-19T11:17:32.115Z,4547.01
2023-03-19T11:18:32.112Z,4478.11
2023-03-19T11:19:32.155Z,4489.45
2023-03-19T11:20:32.097Z,4670.76
2023-03-19T11:21:32.088Z,4995.31
2023-03-19T11:22:32.092Z,5071.50
2023-03-19T11:23:32.149Z,5033.11
2023-03-19T11:24:32.078Z,5076.33
2023-03-19T11:25:32.080Z,4967.32
2023-03-19T11:26:32.049Z,5071.50
2023-03-19T11:27:32.045Z,5236.22
2023-03-19T11:28:32.040Z,5220.80
2023-03-19T11:29:32.046Z,5478.89
2023-03-19T11:30:32.047Z,5512.95
2023-03-19T11:31:32.054Z,5325.33
2023-03-19T11:32:32.178Z,5071.50
2023-03-19T11:33:31.977Z,5267.33
2023-03-19T11:34:32.047Z,5357.50
2023-03-19T11:35:32.016Z,5623.68
2023-03-19T11:36:31.993Z,5467.63
2023-03-19T11:37:31.962Z,5708.15
2023-03-19T11:38:31.931Z,5937.50
2023-03-19T11:39:31.931Z,5820.57
2023-03-19T11:40:31.932Z,5770.06
2023-03-19T11:41:31.909Z,6052.33
2023-03-19T11:42:31.888Z,6244.13
2023-03-19T11:43:31.861Z,6333.33
2023-03-19T11:44:31.914Z,6738.44
2023-03-19T11:45:31.899Z,6833.65
2023-03-19T11:46:31.942Z,6990.80
2023-03-19T11:47:31.848Z,7530.08
2023-03-19T11:48:31.841Z,7638.19
2023-03-19T11:49:31.859Z,7503.53
2023-03-19T11:50:31.845Z,7676.77
2023-03-19T11:51:31.842Z,7698.99
2023-03-19T11:52:31.809Z,7487.68
2023-03-19T11:53:31.815Z,6981.63
2023-03-19T11:54:31.761Z,6712.93
2023-03-19T11:55:31.775Z,6679.22
2023-03-19T11:56:31.755Z,6790.04
2023-03-19T11:57:31.812Z,6940.64
2023-03-19T11:58:31.719Z,6922.58
2023-03-19T11:59:31.706Z,6833.65
2023-03-19T12:00:31.703Z,6777.07
2023-03-19T12:01:31.776Z,6721.42
2023-03-19T12:02:31.740Z,6612.80
2023-03-19T12:03:31.694Z,6356.03
2023-03-19T12:04:31.656Z,6535.63
2023-03-19T12:05:31.692Z,6479.90
2023-03-19T12:06:31.681Z,6440.68
2023-03-19T12:07:31.630Z,6211.33
2023-03-19T12:08:31.620Z,6244.13
2023-03-19T12:09:31.628Z,6024.91
2023-03-19T12:10:31.887Z,5878.45
2023-03-19T12:11:31.599Z,5964.12
2023-03-19T12:12:31.597Z,6066.13
2023-03-19T12:13:31.627Z,6139.64
2023-03-19T12:14:31.563Z,5720.43
2023-03-19T12:15:31.592Z,5456.41
2023-03-19T12:16:31.587Z,5346.73
2023-03-19T12:17:31.568Z,5293.53
2023-03-19T12:18:31.554Z,5205.48
2023-03-19T12:19:31.514Z,5170.07
2023-03-19T12:20:31.527Z,5205.48
2023-03-19T12:21:31.549Z,5195.31
2023-03-19T12:22:31.511Z,5100.67
2023-03-19T12:23:33.000Z,5120.31
2023-03-19T12:24:31.461Z,5180.14
2023-03-19T12:25:31.537Z,5115.38
2023-03-19T12:26:31.462Z,5066.67
2023-03-19T12:27:31.454Z,5066.67
2023-03-19T12:28:31.442Z,4921.37